Time;durP1;ratioP1;P1;durP2;ratioP2;P2;SDS_P1;SDS_P2;PMS_P1;PMS_P2;Temp;Humidity;BMP_temperature;BMP_pressure;BME280_temperature;BME280_humidity;BME280_pressure;Samples;Min_cycle;Max_cycle;Signal;HPM_P1;HPM_P2
2021/08/09 00:01:43;;;;;;;13.48;6.68;;;691.30;1356.80;;;;;;4861723;29;20366;-66
2021/08/09 00:04:17;;;;;;;11.07;6.88;;;691.20;1356.80;;;;;;4861891;29;20108;-69
2021/08/09 00:06:49;;;;;;;9.98;6.47;;;666.50;1382.40;;;;;;4861258;29;20502;-66
2021/08/09 00:09:20;;;;;;;11.10;6.88;;;666.50;1356.80;;;;;;4861736;29;20411;-65
2021/08/09 00:11:52;;;;;;;13.90;7.10;;;666.40;1382.40;;;;;;4861367;29;20377;-68
2021/08/09 00:14:23;;;;;;;10.00;6.68;;;666.30;1408.00;;;;;;4861666;29;20110;-66
2021/08/09 00:16:55;;;;;;;10.45;6.85;;;666.20;1408.00;;;;;;4861442;29;20515;-68
2021/08/09 00:19:26;;;;;;;15.90;6.72;;;666.30;1408.00;;;;;;4861649;29;20055;-69
2021/08/09 00:21:58;;;;;;;15.07;7.15;;;666.30;1408.00;;;;;;4861169;29;20381;-68
2021/08/09 00:24:30;;;;;;;12.00;6.97;;;666.20;1433.60;;;;;;4861405;29;20055;-68
2021/08/09 00:27:01;;;;;;;9.57;6.63;;;666.20;1433.60;;;;;;4861384;29;20053;-67
2021/08/09 00:29:33;;;;;;;11.70;6.95;;;666.00;1433.60;;;;;;4861377;29;20042;-65
2021/08/09 00:32:05;;;;;;;11.77;7.32;;;666.10;1433.60;;;;;;4861534;29;20077;-66
2021/08/09 00:34:38;;;;;;;13.75;7.30;;;666.10;1433.60;;;;;;4861415;29;20025;-69
2021/08/09 00:37:09;;;;;;;11.63;7.35;;;666.00;1433.60;;;;;;4861111;29;20391;-65
2021/08/09 00:39:41;;;;;;;13.23;7.57;;;666.00;1459.20;;;;;;4861310;29;20032;-66
2021/08/09 00:42:12;;;;;;;13.13;6.50;;;665.80;1459.20;;;;;;4861223;29;20034;-65
2021/08/09 00:44:43;;;;;;;11.63;7.35;;;666.00;1433.60;;;;;;4861327;29;20026;-65
2021/08/09 00:47:13;;;;;;;13.88;7.30;;;666.00;1459.20;;;;;;4864971;29;20084;-69
2021/08/09 00:49:49;;;;;;;15.93;7.25;;;665.80;1484.80;;;;;;4864835;29;20060;-66
2021/08/09 00:52:22;;;;;;;13.15;7.38;;;665.80;1484.80;;;;;;4864974;29;20025;-69
2021/08/09 00:54:54;;;;;;;9.82;7.50;;;665.70;1484.80;;;;;;4864914;29;20483;-66
2021/08/09 00:57:26;;;;;;;11.52;7.18;;;665.70;1484.80;;;;;;4864736;29;20049;-66
2021/08/09 01:00:00;;;;;;;9.48;7.10;;;665.70;1484.80;;;;;;4864585;29;20033;-65
2021/08/09 01:02:31;;;;;;;11.57;6.70;;;665.70;1484.80;;;;;;4864689;29;20037;-66
2021/08/09 01:05:05;;;;;;;11.10;7.53;;;665.60;1510.40;;;;;;4864784;29;20040;-65
2021/08/09 01:08:15;;;;;;;10.73;7.28;;;665.60;1510.40;;;;;;4864520;29;20433;-65
2021/08/09 01:11:11;;;;;;;15.85;7.80;;;665.60;1484.80;;;;;;4864594;29;20056;-67
2021/08/09 01:14:24;;;;;;;12.57;7.82;;;640.90;1484.80;;;;;;4864546;29;20029;-66
2021/08/09 01:16:57;;;;;;;11.23;7.57;;;640.80;1510.40;;;;;;4807375;29;20066;-69
2021/08/09 01:19:59;;;;;;;11.55;8.55;;;640.80;1536.00;;;;;;4807564;29;20414;-65
2021/08/09 01:23:12;;;;;;;12.82;9.13;;;640.60;1536.00;;;;;;4807791;29;20034;-65
2021/08/09 01:25:59;;;;;;;14.77;9.73;;;640.60;1536.00;;;;;;4807432;29;20027;-65
2021/08/09 01:28:32;;;;;;;15.52;8.93;;;640.60;1561.60;;;;;;4807049;29;20039;-68
2021/08/09 01:31:05;;;;;;;13.43;8.50;;;640.60;1561.60;;;;;;4807281;29;20034;-66
2021/08/09 01:33:41;;;;;;;12.82;8.90;;;640.50;1561.60;;;;;;4807207;29;20417;-65
2021/08/09 01:36:14;;;;;;;17.05;9.02;;;640.40;1561.60;;;;;;4807312;29;20061;-66
2021/08/09 01:38:46;;;;;;;15.13;10.15;;;640.30;1561.60;;;;;;4807324;29;20042;-65
2021/08/09 01:41:18;;;;;;;12.15;9.10;;;640.30;1561.60;;;;;;4807259;29;20047;-69
2021/08/09 01:43:50;;;;;;;21.52;10.02;;;640.30;1561.60;;;;;;4806992;29;20027;-69
2021/08/09 01:46:23;;;;;;;16.75;9.55;;;640.20;1587.20;;;;;;4807095;29;20061;-68
2021/08/09 01:48:55;;;;;;;15.90;9.03;;;640.20;1587.20;;;;;;4807339;29;20041;-66
2021/08/09 01:51:27;;;;;;;18.27;9.65;;;640.10;1587.20;;;;;;4806845;29;20118;-65
2021/08/09 01:53:59;;;;;;;11.23;8.95;;;640.00;1587.20;;;;;;4851885;29;20069;-65
2021/08/09 01:56:32;;;;;;;11.82;8.70;;;640.10;1587.20;;;;;;4863603;29;20431;-65
2021/08/09 01:59:04;;;;;;;16.60;8.70;;;640.00;1587.20;;;;;;4863731;29;20097;-65
2021/08/09 02:01:35;;;;;;;12.27;7.40;;;615.30;1587.20;;;;;;4863645;29;20041;-69
2021/08/09 02:04:07;;;;;;;11.85;7.88;;;615.30;1561.60;;;;;;4863752;29;20044;-68
2021/08/09 02:06:39;;;;;;;12.30;6.97;;;640.00;1561.60;;;;;;4863533;29;20056;-65
2021/08/09 02:09:11;;;;;;;7.60;6.45;;;640.00;1561.60;;;;;;4863589;29;20078;-69
2021/08/09 02:11:59;;;;;;;11.68;6.60;;;640.00;1561.60;;;;;;4863564;29;20039;-69
2021/08/09 02:14:35;;;;;;;9.95;6.97;;;640.00;1561.60;;;;;;4863543;29;20090;-68
2021/08/09 02:17:13;;;;;;;10.88;6.30;;;640.00;1536.00;;;;;;4863274;29;20414;-65
2021/08/09 02:20:10;;;;;;;7.65;6.32;;;640.00;1561.60;;;;;;4863505;29;20105;-65
2021/08/09 02:22:51;;;;;;;8.50;6.25;;;640.00;1561.60;;;;;;4863503;29;20059;-68
2021/08/09 02:25:27;;;;;;;10.15;6.05;;;640.10;1561.60;;;;;;4863577;29;20089;-69
2021/08/09 02:28:17;;;;;;;9.45;6.22;;;640.00;1561.60;;;;;;4863249;29;20025;-65
2021/08/09 02:31:02;;;;;;;10.30;6.70;;;640.00;1561.60;;;;;;4863280;29;20021;-65
2021/08/09 02:33:34;;;;;;;9.27;5.90;;;640.00;1587.20;;;;;;4863540;29;20442;-66
2021/08/09 02:36:09;;;;;;;10.27;6.47;;;640.00;1587.20;;;;;;4863214;29;20033;-68
2021/08/09 02:38:41;;;;;;;9.52;5.88;;;640.00;1587.20;;;;;;4862943;29;20387;-68
2021/08/09 02:41:13;;;;;;;9.73;6.18;;;640.10;1587.20;;;;;;4863027;29;20025;-66
2021/08/09 02:43:45;;;;;;;8.43;6.10;;;640.10;1587.20;;;;;;4862853;29;20025;-65
2021/08/09 02:46:11;;;;;;;10.07;6.38;;;640.10;1612.80;;;;;;4862700;29;20045;-67
2021/08/09 02:48:44;;;;;;;12.25;7.25;;;640.00;1612.80;;;;;;4862797;29;20041;-69
2021/08/09 02:51:22;;;;;;;10.20;6.10;;;640.00;1612.80;;;;;;4863085;29;20034;-67
2021/08/09 02:53:54;;;;;;;10.50;5.95;;;640.00;1612.80;;;;;;4862942;29;20104;-69
2021/08/09 02:56:28;;;;;;;9.90;6.03;;;640.10;1612.80;;;;;;4862549;29;20017;-68
2021/08/09 02:59:00;;;;;;;11.48;6.03;;;640.00;1638.40;;;;;;4862037;29;20041;-69
2021/08/09 03:01:35;;;;;;;11.65;5.47;;;640.00;1638.40;;;;;;4862520;29;20028;-68
2021/08/09 03:04:10;;;;;;;12.35;5.60;;;640.00;1664.00;;;;;;4862248;29;20029;-66
2021/08/09 03:06:40;;;;;;;11.57;5.45;;;640.00;1664.00;;;;;;4861503;29;20116;-70
2021/08/09 03:09:11;;;;;;;12.77;6.78;;;615.30;1689.60;;;;;;4861484;29;20037;-65
2021/08/09 03:11:49;;;;;;;16.88;6.32;;;615.30;1689.60;;;;;;4861796;29;20045;-68
2021/08/09 03:14:30;;;;;;;14.50;6.05;;;615.30;1689.60;;;;;;4862614;29;20041;-65
2021/08/09 03:17:08;;;;;;;36.53;7.43;;;615.30;1715.20;;;;;;4861845;29;20132;-65
2021/08/09 03:19:40;;;;;;;16.08;6.03;;;615.20;1715.20;;;;;;4862342;29;20383;-70
2021/08/09 03:22:11;;;;;;;12.20;5.85;;;615.20;1715.20;;;;;;4862428;29;20030;-65
2021/08/09 03:24:43;;;;;;;8.93;5.63;;;615.20;1740.80;;;;;;4862415;29;20100;-65
2021/08/09 03:27:15;;;;;;;8.65;5.20;;;615.10;1740.80;;;;;;4862093;29;20066;-65
2021/08/09 03:29:48;;;;;;;10.45;5.47;;;615.20;1740.80;;;;;;4862345;29;20037;-65
2021/08/09 03:32:20;;;;;;;12.50;5.55;;;615.10;1740.80;;;;;;4862299;29;20037;-65
2021/08/09 03:34:51;;;;;;;9.10;5.60;;;615.10;1766.40;;;;;;4862370;29;20029;-68
2021/08/09 03:37:22;;;;;;;9.52;5.38;;;615.10;1766.40;;;;;;4862045;29;20120;-65
2021/08/09 03:39:54;;;;;;;10.00;5.40;;;615.10;1766.40;;;;;;4861990;29;20037;-68
2021/08/09 03:42:25;;;;;;;8.10;5.07;;;615.00;1766.40;;;;;;4861999;29;20038;-66
2021/08/09 03:44:57;;;;;;;9.80;5.00;;;615.00;1766.40;;;;;;4861967;29;20033;-67
2021/08/09 03:47:28;;;;;;;10.38;5.47;;;615.00;1766.40;;;;;;4862058;29;20102;-65
2021/08/09 03:49:59;;;;;;;7.57;5.22;;;615.00;1766.40;;;;;;4862188;29;20030;-65
2021/08/09 03:52:31;;;;;;;8.38;5.55;;;615.00;1766.40;;;;;;4862156;29;20044;-67
2021/08/09 03:55:02;;;;;;;10.35;5.45;;;615.00;1792.00;;;;;;4861933;29;20505;-66
2021/08/09 03:57:34;;;;;;;11.02;6.00;;;614.90;1792.00;;;;;;4861876;29;20484;-65
2021/08/09 04:00:06;;;;;;;10.02;5.55;;;614.90;1792.00;;;;;;4861774;29;20477;-67
2021/08/09 04:02:38;;;;;;;7.90;5.25;;;614.90;1792.00;;;;;;4861684;29;20034;-67
2021/08/09 04:05:11;;;;;;;8.63;5.60;;;614.90;1792.00;;;;;;4861684;29;20120;-67
2021/08/09 04:07:43;;;;;;;8.80;5.25;;;614.90;1817.60;;;;;;4861773;29;20029;-65
2021/08/09 04:10:14;;;;;;;9.02;5.43;;;614.90;1817.60;;;;;;4861780;29;20033;-68
2021/08/09 04:12:46;;;;;;;11.73;5.57;;;615.00;1817.60;;;;;;4861398;29;20029;-68
2021/08/09 04:15:17;;;;;;;8.02;5.18;;;614.90;1817.60;;;;;;4861594;29;20226;-65
2021/08/09 04:17:49;;;;;;;8.02;4.65;;;614.90;1817.60;;;;;;4861330;29;20041;-67
2021/08/09 04:20:20;;;;;;;8.40;4.78;;;614.90;1817.60;;;;;;4861400;29;20029;-66
2021/08/09 04:22:52;;;;;;;6.78;4.57;;;614.90;1843.20;;;;;;4861511;29;20036;-66
2021/08/09 04:25:25;;;;;;;9.20;4.65;;;614.90;1843.20;;;;;;4861543;29;20056;-66
2021/08/09 04:27:56;;;;;;;7.60;4.68;;;614.90;1843.20;;;;;;4861496;29;20064;-68
2021/08/09 04:30:28;;;;;;;8.65;4.55;;;614.90;1843.20;;;;;;4861495;29;20052;-67
2021/08/09 04:33:06;;;;;;;7.53;4.05;;;614.90;1843.20;;;;;;4861237;29;20130;-66
2021/08/09 04:35:38;;;;;;;7.32;3.55;;;614.90;1843.20;;;;;;4859771;29;20052;-66
2021/08/09 04:38:12;;;;;;;7.63;3.40;;;614.90;1843.20;;;;;;4861173;29;20561;-68
2021/08/09 04:40:43;;;;;;;5.38;3.70;;;614.90;1843.20;;;;;;4861487;29;20032;-65
2021/08/09 04:43:15;;;;;;;6.57;3.83;;;614.90;1868.80;;;;;;4861438;29;20041;-65
2021/08/09 04:45:47;;;;;;;10.45;3.75;;;614.90;1868.80;;;;;;4859455;29;20049;-68
2021/08/09 04:48:18;;;;;;;5.90;3.60;;;614.90;1868.80;;;;;;4861314;29;20045;-65
2021/08/09 04:50:49;;;;;;;9.23;3.90;;;614.90;1843.20;;;;;;4861283;29;20036;-67
2021/08/09 04:53:21;;;;;;;8.50;4.07;;;614.90;1868.80;;;;;;4861318;29;20469;-67
2021/08/09 04:55:52;;;;;;;8.32;3.22;;;614.90;1868.80;;;;;;4861178;29;20377;-68
2021/08/09 04:58:24;;;;;;;6.65;4.25;;;615.00;1843.20;;;;;;4860832;29;20507;-68
2021/08/09 05:00:55;;;;;;;9.95;3.67;;;615.00;1843.20;;;;;;4861371;29;20045;-67
2021/08/09 05:03:27;;;;;;;6.05;3.40;;;615.10;1843.20;;;;;;4861506;29;20045;-68
2021/08/09 05:05:58;;;;;;;4.93;3.30;;;615.10;1843.20;;;;;;4861081;29;20483;-68
2021/08/09 05:08:29;;;;;;;5.35;3.45;;;615.10;1843.20;;;;;;4861607;29;20406;-67
2021/08/09 05:11:01;;;;;;;5.95;3.30;;;615.10;1843.20;;;;;;4861069;29;20026;-68
2021/08/09 05:13:32;;;;;;;8.05;3.78;;;615.20;1843.20;;;;;;4860865;29;20037;-67
2021/08/09 05:16:04;;;;;;;8.85;6.25;;;615.20;1843.20;;;;;;4860882;29;20048;-68
2021/08/09 05:18:36;;;;;;;15.30;8.27;;;615.20;1843.20;;;;;;4861022;29;20037;-68
2021/08/09 05:21:07;;;;;;;7.63;4.53;;;615.30;1843.20;;;;;;4861050;29;20040;-68
2021/08/09 05:23:39;;;;;;;5.60;3.50;;;615.20;1817.60;;;;;;4861062;29;20033;-65
2021/08/09 05:26:12;;;;;;;6.57;3.35;;;615.30;1843.20;;;;;;4861034;29;20034;-66
2021/08/09 05:28:43;;;;;;;6.35;3.35;;;640.00;1843.20;;;;;;4860910;29;20109;-66
2021/08/09 05:31:15;;;;;;;5.25;3.33;;;640.00;1817.60;;;;;;4862236;29;20033;-67
2021/08/09 05:33:47;;;;;;;5.50;3.38;;;640.00;1817.60;;;;;;4864475;29;20040;-67
2021/08/09 05:36:18;;;;;;;4.70;3.38;;;640.10;1792.00;;;;;;4864293;29;20025;-65
2021/08/09 05:38:53;;;;;;;6.85;3.40;;;640.10;1792.00;;;;;;4864013;29;20477;-67
2021/08/09 05:41:24;;;;;;;5.72;3.50;;;640.20;1792.00;;;;;;4864356;29;20072;-67
2021/08/09 05:43:55;;;;;;;5.70;3.40;;;640.20;1792.00;;;;;;4864340;29;20029;-65
2021/08/09 05:46:27;;;;;;;8.82;3.55;;;640.20;1792.00;;;;;;4863879;29;20117;-65
2021/08/09 05:48:58;;;;;;;3.92;3.17;;;640.30;1766.40;;;;;;4863731;29;20040;-65
2021/08/09 05:51:30;;;;;;;10.52;4.22;;;640.30;1766.40;;;;;;4863823;29;20060;-67
2021/08/09 05:54:01;;;;;;;7.07;3.78;;;640.40;1766.40;;;;;;4864007;29;20116;-66
2021/08/09 05:56:30;;;;;;;5.05;3.75;;;640.40;1766.40;;;;;;4864228;29;20029;-68
2021/08/09 05:59:02;;;;;;;6.93;3.97;;;640.50;1766.40;;;;;;4864100;29;20033;-66
2021/08/09 06:01:34;;;;;;;6.35;4.28;;;640.60;1766.40;;;;;;4864231;29;20049;-65
2021/08/09 06:04:05;;;;;;;4.90;3.65;;;640.60;1740.80;;;;;;4863800;29;20053;-68
2021/08/09 06:06:36;;;;;;;6.40;4.07;;;640.60;1766.40;;;;;;4863752;29;20064;-67
2021/08/09 06:09:08;;;;;;;6.28;4.00;;;640.70;1766.40;;;;;;4863588;29;20452;-65
2021/08/09 06:11:40;;;;;;;8.65;3.83;;;640.70;1766.40;;;;;;4863639;29;20052;-66
2021/08/09 06:14:12;;;;;;;7.78;4.22;;;640.70;1766.40;;;;;;4863657;29;20029;-65
2021/08/09 06:16:43;;;;;;;7.40;4.07;;;640.80;1740.80;;;;;;4863522;29;20100;-68
2021/08/09 06:19:15;;;;;;;7.07;3.65;;;640.80;1740.80;;;;;;4863528;29;20034;-68
2021/08/09 06:21:46;;;;;;;9.57;3.95;;;640.90;1740.80;;;;;;4863290;29;20484;-66
2021/08/09 06:24:17;;;;;;;7.78;4.10;;;665.60;1766.40;;;;;;4846923;29;20094;-67
2021/08/09 06:26:43;;;;;;;7.63;3.60;;;665.60;1766.40;;;;;;4844690;29;20029;-64
2021/08/09 06:29:09;;;;;;;7.32;4.15;;;665.70;1740.80;;;;;;4844870;29;20091;-64
2021/08/09 06:31:36;;;;;;;8.45;4.18;;;665.80;1715.20;;;;;;4846597;29;20524;-64
2021/08/09 06:34:02;;;;;;;8.48;3.40;;;666.00;1740.80;;;;;;4861961;29;20074;-65
2021/08/09 06:36:28;;;;;;;6.72;3.80;;;666.00;1715.20;;;;;;4862978;29;20485;-65
2021/08/09 06:38:54;;;;;;;7.32;4.32;;;666.30;1715.20;;;;;;4862951;29;20065;-67
2021/08/09 06:41:21;;;;;;;9.75;4.05;;;666.40;1689.60;;;;;;4863076;29;20033;-66
2021/08/09 06:43:49;;;;;;;7.28;4.10;;;691.20;1664.00;;;;;;4862077;29;20033;-67
2021/08/09 06:46:18;;;;;;;10.18;4.35;;;691.40;1638.40;;;;;;4862612;29;20084;-65
2021/08/09 06:48:49;;;;;;;8.10;4.10;;;691.50;1612.80;;;;;;4862942;29;20029;-67
2021/08/09 06:51:20;;;;;;;9.73;4.07;;;691.90;1612.80;;;;;;4863295;29;20021;-66
2021/08/09 06:53:55;;;;;;;30.30;6.32;;;692.10;1561.60;;;;;;4862938;29;20389;-68
2021/08/09 06:56:26;;;;;;;12.63;6.15;;;717.00;1561.60;;;;;;4863045;29;20041;-68
2021/08/09 06:58:58;;;;;;;12.38;4.82;;;717.30;1536.00;;;;;;4862703;29;20052;-66
2021/08/09 07:01:29;;;;;;;9.18;4.10;;;717.60;1510.40;;;;;;4861330;29;20065;-68
2021/08/09 07:04:01;;;;;;;7.05;3.88;;;742.50;1510.40;;;;;;4862693;29;20033;-68
2021/08/09 07:06:32;;;;;;;7.03;3.80;;;742.70;1484.80;;;;;;4862703;29;20056;-66
2021/08/09 07:09:05;;;;;;;10.43;4.53;;;742.90;1459.20;;;;;;4862700;29;20104;-66
2021/08/09 07:11:37;;;;;;;6.53;4.40;;;743.10;1459.20;;;;;;4862391;29;20073;-67
2021/08/09 07:14:08;;;;;;;7.65;3.67;;;768.00;1433.60;;;;;;4862544;29;20030;-66
2021/08/09 07:16:40;;;;;;;4.85;3.65;;;768.20;1408.00;;;;;;4862493;29;20030;-68
2021/08/09 07:19:12;;;;;;;6.40;3.38;;;768.50;1382.40;;;;;;4862187;29;20033;-68
2021/08/09 07:21:43;;;;;;;4.43;3.67;;;768.60;1382.40;;;;;;4862306;29;20032;-66
2021/08/09 07:24:15;;;;;;;7.38;3.90;;;793.60;1382.40;;;;;;4862305;29;20041;-67
2021/08/09 07:26:47;;;;;;;6.80;3.72;;;793.70;1356.80;;;;;;4861948;29;20387;-68
2021/08/09 07:29:19;;;;;;;6.35;3.63;;;794.00;1356.80;;;;;;4862124;29;20480;-68
2021/08/09 07:31:51;;;;;;;10.35;4.43;;;794.20;1331.20;;;;;;4862201;29;20033;-66
2021/08/09 07:34:22;;;;;;;10.20;4.50;;;794.40;1305.60;;;;;;4862238;29;20033;-68
2021/08/09 07:36:54;;;;;;;6.50;3.53;;;819.30;1280.00;;;;;;4862244;29;20041;-67
2021/08/09 07:39:26;;;;;;;5.80;3.22;;;819.50;1280.00;;;;;;4862074;29;20032;-68
2021/08/09 07:41:57;;;;;;;6.30;3.80;;;819.70;1254.40;;;;;;4861963;29;20029;-68
2021/08/09 07:44:29;;;;;;;4.35;3.38;;;819.90;1228.80;;;;;;4861988;29;20030;-66
2021/08/09 07:47:00;;;;;;;8.55;3.85;;;844.80;1228.80;;;;;;4861767;29;20053;-68
2021/08/09 07:49:32;;;;;;;4.97;3.35;;;844.90;1203.20;;;;;;4861854;29;20032;-68
2021/08/09 07:52:03;;;;;;;10.82;3.78;;;845.00;1177.60;;;;;;4862029;29;20073;-66
2021/08/09 07:54:35;;;;;;;8.43;3.70;;;845.30;1177.60;;;;;;4860874;29;20057;-68
2021/08/09 07:57:07;;;;;;;4.55;3.47;;;845.40;1152.00;;;;;;4861869;29;20034;-68
2021/08/09 07:59:38;;;;;;;6.32;3.28;;;845.50;1152.00;;;;;;4860323;29;20113;-68
2021/08/09 08:02:09;;;;;;;6.57;3.58;;;870.40;1126.40;;;;;;4861649;29;20040;-67
2021/08/09 08:04:47;;;;;;;6.65;3.47;;;870.50;1100.80;;;;;;4860417;29;20037;-68
2021/08/09 08:07:18;;;;;;;6.38;3.67;;;870.60;1100.80;;;;;;4861630;29;20472;-66
2021/08/09 08:09:50;;;;;;;5.50;3.30;;;870.80;1100.80;;;;;;4861466;29;20031;-69
2021/08/09 08:12:21;;;;;;;6.78;3.80;;;870.90;1100.80;;;;;;4861477;29;20040;-68
2021/08/09 08:14:53;;;;;;;8.57;4.03;;;871.10;1075.20;;;;;;4861596;29;20029;-68
2021/08/09 08:17:24;;;;;;;6.20;3.40;;;871.10;1075.20;;;;;;4861444;29;20052;-66
2021/08/09 08:19:55;;;;;;;6.60;3.55;;;871.20;1075.20;;;;;;4861587;29;20057;-68
2021/08/09 08:22:27;;;;;;;4.72;3.33;;;871.30;1075.20;;;;;;4861566;29;20029;-68
2021/08/09 08:24:58;;;;;;;10.55;3.45;;;896.00;1049.60;;;;;;4861402;29;20072;-68
2021/08/09 08:27:30;;;;;;;7.53;3.63;;;896.10;1049.60;;;;;;4861420;29;20085;-67
2021/08/09 08:30:02;;;;;;;7.75;3.40;;;896.20;1024.00;;;;;;4861399;29;20053;-66
2021/08/09 08:32:34;;;;;;;6.82;3.80;;;896.30;1024.00;;;;;;4859740;29;20042;-68
2021/08/09 08:35:08;;;;;;;6.50;3.60;;;896.50;1024.00;;;;;;4861392;29;20029;-68
2021/08/09 08:37:39;;;;;;;5.65;3.75;;;896.70;998.40;;;;;;4861311;29;20061;-68
2021/08/09 08:40:12;;;;;;;5.53;3.90;;;896.80;998.40;;;;;;4861283;29;20419;-68
2021/08/09 08:42:49;;;;;;;7.80;3.63;;;896.90;998.40;;;;;;4861029;29;20034;-68
2021/08/09 08:45:23;;;;;;;6.30;3.60;;;921.60;998.40;;;;;;4861273;29;20094;-66
2021/08/09 08:47:55;;;;;;;10.43;3.70;;;921.60;998.40;;;;;;4861334;29;20086;-68
2021/08/09 08:50:26;;;;;;;5.60;3.22;;;921.90;998.40;;;;;;4861067;29;20066;-66
2021/08/09 08:52:58;;;;;;;4.35;3.20;;;922.00;998.40;;;;;;4859849;29;20045;-69
2021/08/09 08:55:29;;;;;;;6.63;3.08;;;922.00;972.80;;;;;;4861169;29;20026;-67
2021/08/09 08:58:00;;;;;;;5.22;3.35;;;922.00;972.80;;;;;;4861131;29;20101;-66
2021/08/09 09:00:42;;;;;;;4.88;3.40;;;922.10;972.80;;;;;;4861092;29;20432;-68
2021/08/09 09:03:26;;;;;;;8.57;4.80;;;922.10;947.20;;;;;;4861227;29;20049;-66
2021/08/09 09:06:09;;;;;;;6.75;3.90;;;922.20;947.20;;;;;;4861583;29;20049;-68
2021/08/09 09:08:53;;;;;;;6.33;3.17;;;922.30;921.60;;;;;;4864807;29;20034;-66
2021/08/09 09:11:33;;;;;;;8.13;3.17;;;922.50;947.20;;;;;;4864626;29;20476;-69
2021/08/09 09:14:06;;;;;;;5.20;3.10;;;947.20;921.60;;;;;;4864590;29;20146;-66
2021/08/09 09:16:51;;;;;;;3.60;2.70;;;947.30;921.60;;;;;;4864417;29;20494;-66
2021/08/09 09:19:45;;;;;;;9.32;2.95;;;947.50;896.00;;;;;;4864409;29;20045;-69
2021/08/09 09:22:27;;;;;;;3.88;2.67;;;947.50;896.00;;;;;;4864509;29;20037;-66
2021/08/09 09:24:59;;;;;;;5.15;2.90;;;947.50;896.00;;;;;;4864384;29;20034;-68
2021/08/09 09:27:37;;;;;;;5.30;3.00;;;947.50;896.00;;;;;;4864547;29;20029;-66
2021/08/09 09:30:29;;;;;;;3.30;2.97;;;947.60;896.00;;;;;;4864197;29;20499;-66
2021/08/09 09:33:05;;;;;;;5.03;3.17;;;947.60;896.00;;;;;;4864075;29;20108;-68
2021/08/09 09:35:43;;;;;;;9.15;3.05;;;947.80;896.00;;;;;;4864335;29;20104;-67
2021/08/09 09:38:15;;;;;;;8.00;2.75;;;947.90;896.00;;;;;;4864314;29;20400;-66
2021/08/09 09:40:49;;;;;;;5.85;4.53;;;947.90;896.00;;;;;;4864327;29;20026;-66
2021/08/09 09:43:22;;;;;;;6.32;4.88;;;947.90;896.00;;;;;;4864371;29;20037;-66
2021/08/09 09:46:00;;;;;;;7.47;4.03;;;947.90;896.00;;;;;;4863845;29;20058;-66
2021/08/09 09:48:38;;;;;;;10.07;3.95;;;948.00;870.40;;;;;;4862636;29;20480;-69
2021/08/09 09:51:13;;;;;;;5.32;3.05;;;948.00;896.00;;;;;;4863876;29;20037;-66
2021/08/09 09:53:46;;;;;;;5.38;2.97;;;972.80;896.00;;;;;;4864086;29;20038;-68
2021/08/09 09:56:19;;;;;;;6.57;3.00;;;972.80;896.00;;;;;;4863846;29;20105;-66
2021/08/09 09:58:53;;;;;;;3.10;2.60;;;972.80;896.00;;;;;;4863992;29;20421;-68
2021/08/09 10:01:27;;;;;;;7.90;3.10;;;972.80;896.00;;;;;;4863742;29;20029;-69
2021/08/09 10:03:59;;;;;;;4.70;4.03;;;972.80;896.00;;;;;;4863708;29;20034;-68
2021/08/09 10:06:31;;;;;;;9.52;4.13;;;972.80;896.00;;;;;;4864036;29;20052;-66
2021/08/09 10:09:05;;;;;;;7.13;3.40;;;972.80;870.40;;;;;;4863634;29;20473;-67
2021/08/09 10:11:45;;;;;;;4.43;2.97;;;972.90;870.40;;;;;;4863460;29;20036;-66
2021/08/09 10:14:17;;;;;;;6.45;3.50;;;973.00;870.40;;;;;;4863557;29;20025;-67
2021/08/09 10:16:48;;;;;;;5.95;3.15;;;973.00;870.40;;;;;;4863930;29;20034;-66
2021/08/09 10:19:22;;;;;;;4.20;3.10;;;973.00;870.40;;;;;;4863793;29;20098;-68
2021/08/09 10:21:54;;;;;;;3.83;2.67;;;973.10;870.40;;;;;;4863512;29;20029;-68
2021/08/09 10:24:41;;;;;;;7.93;3.40;;;973.20;870.40;;;;;;4863438;29;20044;-68
2021/08/09 10:27:13;;;;;;;5.75;3.00;;;973.20;870.40;;;;;;4863254;29;20061;-68
2021/08/09 10:30:06;;;;;;;6.93;2.92;;;973.20;844.80;;;;;;4863477;29;20120;-68
2021/08/09 10:32:53;;;;;;;7.38;3.33;;;973.20;844.80;;;;;;4863258;29;20457;-68
2021/08/09 10:35:40;;;;;;;4.70;2.80;;;973.30;844.80;;;;;;4863236;29;20033;-67
2021/08/09 10:38:28;;;;;;;7.20;3.45;;;973.30;844.80;;;;;;4863222;29;20037;-68
2021/08/09 10:41:27;;;;;;;6.72;4.07;;;973.30;844.80;;;;;;4863059;29;20503;-67
2021/08/09 10:44:08;;;;;;;8.65;3.58;;;973.30;844.80;;;;;;4863160;29;20079;-66
2021/08/09 10:46:45;;;;;;;6.03;3.00;;;973.50;844.80;;;;;;4856572;29;20042;-65
2021/08/09 10:49:41;;;;;;;4.65;3.00;;;973.50;844.80;;;;;;4848772;29;20102;-68
2021/08/09 10:52:08;;;;;;;3.90;2.80;;;973.50;844.80;;;;;;4844445;29;20037;-67
2021/08/09 10:54:35;;;;;;;6.43;3.08;;;973.50;844.80;;;;;;4844582;29;20022;-66
2021/08/09 10:57:03;;;;;;;7.70;3.17;;;973.50;844.80;;;;;;4844262;29;20116;-66
2021/08/09 10:59:41;;;;;;;5.68;3.60;;;973.50;844.80;;;;;;4844544;29;20036;-68
2021/08/09 11:02:17;;;;;;;7.45;3.42;;;973.50;844.80;;;;;;4844392;29;20038;-65
2021/08/09 11:04:43;;;;;;;6.93;3.53;;;973.60;819.20;;;;;;4843939;29;20393;-65
2021/08/09 11:07:21;;;;;;;8.73;3.38;;;973.60;844.80;;;;;;4851108;29;20022;-66
2021/08/09 11:09:50;;;;;;;6.82;3.35;;;973.70;870.40;;;;;;4848486;29;20041;-68
2021/08/09 11:12:25;;;;;;;7.13;3.80;;;973.70;870.40;;;;;;4844150;29;20037;-66
2021/08/09 11:15:11;;;;;;;5.03;3.72;;;998.40;870.40;;;;;;4844232;29;20049;-67
2021/08/09 11:17:39;;;;;;;5.72;3.58;;;998.40;896.00;;;;;;4843943;29;20038;-66
2021/08/09 11:20:21;;;;;;;12.85;3.90;;;998.40;896.00;;;;;;4844223;29;20078;-69
2021/08/09 11:23:10;;;;;;;7.40;3.67;;;998.40;896.00;;;;;;4843915;29;20026;-68
2021/08/09 11:25:47;;;;;;;7.28;3.58;;;998.40;896.00;;;;;;4843925;29;20022;-66
2021/08/09 11:28:24;;;;;;;7.85;3.90;;;998.40;896.00;;;;;;4843302;29;20048;-65
2021/08/09 11:30:58;;;;;;;6.13;3.45;;;973.70;870.40;;;;;;4843773;29;20373;-67
2021/08/09 11:33:36;;;;;;;7.22;3.42;;;973.70;870.40;;;;;;4843929;29;20075;-66
2021/08/09 11:36:15;;;;;;;9.77;4.00;;;998.40;896.00;;;;;;4843930;29;20109;-68
2021/08/09 11:38:44;;;;;;;4.70;3.05;;;998.40;896.00;;;;;;4843542;29;20434;-67
2021/08/09 11:41:22;;;;;;;5.25;3.30;;;998.40;896.00;;;;;;4850934;29;20440;-67
2021/08/09 11:43:51;;;;;;;8.15;3.55;;;998.40;896.00;;;;;;4851012;29;20022;-67
2021/08/09 11:46:19;;;;;;;7.07;3.75;;;998.40;896.00;;;;;;4849031;29;20053;-67
2021/08/09 11:48:49;;;;;;;4.20;3.50;;;998.40;896.00;;;;;;4842962;29;20113;-67
2021/08/09 11:51:25;;;;;;;6.15;3.28;;;998.40;870.40;;;;;;4848195;29;20025;-65
2021/08/09 11:53:53;;;;;;;7.10;3.25;;;998.40;870.40;;;;;;4845780;29;20063;-67
2021/08/09 11:56:30;;;;;;;6.30;3.10;;;998.40;870.40;;;;;;4848753;29;20384;-68
2021/08/09 11:58:56;;;;;;;7.15;3.80;;;998.40;870.40;;;;;;4850361;29;20489;-67
2021/08/09 12:01:30;;;;;;;4.30;3.45;;;998.40;870.40;;;;;;4845829;29;20435;-68
2021/08/09 12:04:08;;;;;;;8.00;3.58;;;998.40;870.40;;;;;;4841845;29;20534;-66
2021/08/09 12:06:55;;;;;;;8.50;3.88;;;998.40;870.40;;;;;;4851095;29;20026;-67
2021/08/09 12:09:43;;;;;;;5.82;3.80;;;998.40;870.40;;;;;;4845710;29;20484;-67
2021/08/09 12:12:11;;;;;;;3.95;3.42;;;998.40;844.80;;;;;;4844439;29;20022;-67
2021/08/09 12:14:37;;;;;;;9.55;3.80;;;998.40;844.80;;;;;;4848067;29;20034;-65
2021/08/09 12:17:31;;;;;;;5.13;4.40;;;998.40;870.40;;;;;;4849183;29;20084;-68
2021/08/09 12:19:57;;;;;;;6.75;3.72;;;998.40;870.40;;;;;;4847859;29;20545;-67
2021/08/09 12:22:29;;;;;;;5.38;3.55;;;998.40;870.40;;;;;;4847084;29;20030;-67
2021/08/09 12:25:07;;;;;;;3.78;3.17;;;998.40;870.40;;;;;;4850347;29;20041;-65
2021/08/09 12:27:39;;;;;;;9.15;3.88;;;998.40;870.40;;;;;;4856307;29;20521;-68
2021/08/09 12:30:11;;;;;;;11.60;4.70;;;998.40;870.40;;;;;;4861516;29;20038;-68
2021/08/09 12:33:04;;;;;;;7.00;4.47;;;998.40;870.40;;;;;;4844511;29;20064;-68
2021/08/09 12:35:43;;;;;;;8.98;3.80;;;998.40;870.40;;;;;;4861480;29;20038;-66
2021/08/09 12:38:16;;;;;;;6.38;3.75;;;998.40;870.40;;;;;;4861588;29;20041;-66
2021/08/09 12:40:52;;;;;;;5.55;3.85;;;998.40;870.40;;;;;;4861634;29;20025;-68
2021/08/09 12:43:24;;;;;;;7.32;4.00;;;998.50;870.40;;;;;;4865289;29;20166;-67
2021/08/09 12:45:50;;;;;;;8.15;3.75;;;998.40;870.40;;;;;;4862726;29;20053;-65
2021/08/09 12:48:18;;;;;;;4.72;3.40;;;998.40;870.40;;;;;;4834548;29;20147;-67
2021/08/09 12:50:45;;;;;;;5.20;3.40;;;973.70;844.80;;;;;;4850677;29;20025;-67
2021/08/09 12:53:15;;;;;;;5.70;3.10;;;973.70;844.80;;;;;;4846345;29;20037;-68